aviador You're here:

KPAM Decoded Metar

PANAMA CITY in FL, USA
Report Time2018-02-21 20:56:00
UTC Time2018-02-21 21:15:00
Flight Rules vfr VFR
Wind150° at 18 Gusting to 25 kt
W.Decomp.*RWY 13: 16.8 kt HW 6.5 kt RCW
W.Rank150° ranks 25
Current wind is above 150° avg. (9.3)
Visibility9999 m
Phenomena:N/A
Clouds:Few 009 Hf
Scattered 025 Hf
Expected CloudBase > 1,200 ft AGL from Temp-Dew spread
CeilingNone
Temp24°C (ISA +9)
Dew Point21°C (83% RH)
AAT21.7°C
QNH1026 hPa
Density Alt955 ft
Elevation16 ft
Report Wrong Elevation
Raw Report
KPAM 212056Z COR 15018G25KT 10SM FEW009 SCT025 24/21 A3030 RMK
AO2A SLP264 T02440207 57015 $ COR 2101=

Extra information for KPAM:More info

Metar Taf Metar & Taf Last 4 Metars F.Rules Stats Wind Profile Meteogram Temp Stats Airport Information Weather charts Add Link Nearby VenuesMetar ALERT Operation Metar Decoded Social comments

AIRNAV info for KPAM